Time;durP1;ratioP1;P1;durP2;ratioP2;P2;SDS_P1;SDS_P2;PMS_P1;PMS_P2;Temp;Humidity;BMP_temperature;BMP_pressure;BME280_temperature;BME280_humidity;BME280_pressure;Samples;Min_cycle;Max_cycle;Signal;HPM_P1;HPM_P2
2021/06/10 00:02:22;;;;;;;5.95;5.42;;;;;;;23.14;55.72;99178.10;1822796;76;21004;-64
2021/06/10 00:04:49;;;;;;;6.30;5.72;;;;;;;23.13;55.73;99174.30;1805495;77;21503;-66
2021/06/10 00:07:16;;;;;;;6.28;5.78;;;;;;;23.14;55.80;99173.20;1812665;76;21117;-64
2021/06/10 00:09:44;;;;;;;8.65;5.80;;;;;;;23.12;55.82;99171.30;1810057;77;21503;-65
2021/06/10 00:12:13;;;;;;;7.15;5.83;;;;;;;23.10;55.85;99169.39;1811607;77;21177;-65
2021/06/10 00:14:40;;;;;;;6.60;6.00;;;;;;;23.08;55.83;99172.39;1811341;76;21063;-66
2021/06/10 00:17:06;;;;;;;5.62;5.17;;;;;;;23.06;55.83;99174.52;1815248;76;21804;-66
2021/06/10 00:19:33;;;;;;;5.53;4.95;;;;;;;23.03;55.93;99172.91;1811841;76;22058;-65
2021/06/10 00:21:59;;;;;;;5.83;5.33;;;;;;;23.02;55.96;99176.65;1808771;76;21084;-65
2021/06/10 00:24:26;;;;;;;8.18;5.60;;;;;;;22.99;56.02;99173.13;1828639;76;21114;-67
2021/06/10 00:26:52;;;;;;;6.28;5.78;;;;;;;22.95;56.16;99175.00;1818358;76;21076;-66
2021/06/10 00:29:19;;;;;;;6.15;5.45;;;;;;;22.96;56.17;99182.03;1825039;77;21965;-65
2021/06/10 00:31:47;;;;;;;6.42;5.83;;;;;;;22.94;56.18;99172.00;1819592;77;21052;-65
2021/06/10 00:34:17;;;;;;;6.28;5.67;;;;;;;22.93;56.24;99173.64;1824505;76;21080;-63
2021/06/10 00:36:43;;;;;;;7.78;6.28;;;;;;;22.89;56.28;99170.64;1829597;76;21762;-65
2021/06/10 00:39:09;;;;;;;8.93;6.35;;;;;;;22.89;56.34;99172.52;1824095;76;21041;-65
2021/06/10 00:41:36;;;;;;;6.67;5.97;;;;;;;22.85;56.39;99172.25;1811902;76;21104;-65
2021/06/10 00:44:07;;;;;;;7.92;6.33;;;;;;;22.83;56.46;99170.34;1823861;76;21053;-64
2021/06/10 00:46:33;;;;;;;7.15;6.45;;;;;;;22.82;56.50;99164.64;1818947;76;21588;-64
2021/06/10 00:49:01;;;;;;;6.35;5.70;;;;;;;22.81;56.53;99164.89;1818725;77;21138;-64
2021/06/10 00:51:27;;;;;;;6.72;6.03;;;;;;;22.78;56.57;99161.64;1818271;77;21096;-64
2021/06/10 00:53:56;;;;;;;6.67;6.08;;;;;;;22.77;56.59;99159.19;1830142;76;21142;-65
2021/06/10 00:56:22;;;;;;;6.37;5.78;;;;;;;22.74;56.65;99152.95;1822379;76;21502;-66
2021/06/10 00:58:49;;;;;;;6.53;5.92;;;;;;;22.71;56.73;99146.70;1824852;76;21025;-64
2021/06/10 01:01:16;;;;;;;9.43;5.80;;;;;;;22.68;56.84;99149.41;1814673;76;21178;-64
2021/06/10 01:03:42;;;;;;;6.92;6.35;;;;;;;22.67;56.86;99145.05;1823251;76;21064;-65
2021/06/10 01:06:31;;;;;;;5.97;5.45;;;;;;;22.66;56.95;99145.34;1823763;77;21037;-65
2021/06/10 01:09:14;;;;;;;6.35;5.75;;;;;;;22.64;57.00;99145.59;1823759;76;21022;-64
2021/06/10 01:12:08;;;;;;;7.28;6.58;;;;;;;22.61;57.08;99144.75;1826015;76;21017;-66
2021/06/10 01:14:42;;;;;;;7.60;6.90;;;;;;;22.60;57.23;99146.36;1822481;77;21168;-66
2021/06/10 01:17:09;;;;;;;5.78;5.28;;;;;;;22.55;57.30;99147.97;1816794;76;22039;-66
2021/06/10 01:19:56;;;;;;;6.50;6.00;;;;;;;22.53;57.37;99147.41;1812187;76;21273;-64
2021/06/10 01:22:40;;;;;;;7.75;5.87;;;;;;;22.52;57.36;99146.31;1824586;76;21950;-64
2021/06/10 01:25:37;;;;;;;7.05;5.45;;;;;;;22.50;57.43;99153.88;1821847;76;20995;-64
2021/06/10 01:28:15;;;;;;;6.33;5.75;;;;;;;22.48;57.52;99154.68;1810825;76;21819;-63
2021/06/10 01:30:51;;;;;;;6.33;5.72;;;;;;;22.46;57.63;99149.52;1797981;76;21562;-64
2021/06/10 01:33:39;;;;;;;7.25;6.53;;;;;;;22.44;57.66;99148.97;1806443;76;21110;-64
2021/06/10 01:36:10;;;;;;;9.18;6.33;;;;;;;22.43;57.68;99146.00;1807070;76;21011;-65
2021/06/10 01:38:38;;;;;;;9.20;7.05;;;;;;;22.42;57.74;99150.31;1810346;76;21078;-64
2021/06/10 01:41:06;;;;;;;7.08;6.35;;;;;;;22.40;57.76;99146.51;1808425;76;21148;-63
2021/06/10 01:43:37;;;;;;;7.67;6.97;;;;;;;22.40;57.81;99143.00;1814739;76;21593;-64
2021/06/10 01:46:04;;;;;;;6.67;6.17;;;;;;;22.38;57.87;99145.41;1805376;76;21487;-64
2021/06/10 01:48:31;;;;;;;7.83;7.12;;;;;;;22.38;57.86;99148.12;1808334;76;21126;-64
2021/06/10 01:50:59;;;;;;;6.78;6.08;;;;;;;22.37;57.87;99150.56;1805748;76;21098;-64
2021/06/10 01:53:26;;;;;;;7.35;6.22;;;;;;;22.37;57.89;99146.50;1815612;76;21207;-64
2021/06/10 01:55:54;;;;;;;7.35;6.65;;;;;;;22.37;57.90;99153.81;1813398;76;21090;-65
2021/06/10 01:58:21;;;;;;;7.85;6.45;;;;;;;22.37;57.93;99156.52;1813601;76;21074;-64
2021/06/10 02:00:49;;;;;;;6.35;5.85;;;;;;;22.35;57.92;99156.77;1793066;76;21066;-64
2021/06/10 02:03:15;;;;;;;7.67;5.58;;;;;;;22.35;57.95;99159.48;1810376;76;21026;-63
2021/06/10 02:05:42;;;;;;;8.78;5.95;;;;;;;22.35;58.02;99156.77;1816669;76;23146;-66
2021/06/10 02:08:12;;;;;;;6.55;5.95;;;;;;;22.36;58.03;99156.23;1810880;76;21011;-65
2021/06/10 02:10:45;;;;;;;10.70;6.58;;;;;;;22.35;58.04;99158.67;1809807;76;21547;-65
2021/06/10 02:13:12;;;;;;;6.60;6.00;;;;;;;22.35;58.04;99162.73;1807423;76;21530;-64
2021/06/10 02:15:40;;;;;;;6.25;5.65;;;;;;;22.34;58.08;99159.19;1811329;76;21142;-64
2021/06/10 02:18:06;;;;;;;6.75;6.15;;;;;;;22.36;58.08;99164.34;1808882;76;21122;-64
2021/06/10 02:20:32;;;;;;;6.87;6.15;;;;;;;22.35;58.02;99164.08;1810243;76;20992;-65
2021/06/10 02:22:59;;;;;;;6.85;6.25;;;;;;;22.34;58.06;99154.32;1809532;76;21611;-64
2021/06/10 02:25:25;;;;;;;7.00;6.40;;;;;;;22.33;58.09;99160.83;1830732;76;21505;-67
2021/06/10 02:27:52;;;;;;;7.47;6.30;;;;;;;22.33;58.11;99162.17;1822816;77;21138;-65
2021/06/10 02:30:20;;;;;;;9.33;6.97;;;;;;;22.30;58.17;99159.43;1822356;76;21746;-65
2021/06/10 02:32:46;;;;;;;8.30;7.22;;;;;;;22.30;58.18;99159.98;1824605;76;21290;-66
2021/06/10 02:35:14;;;;;;;7.35;6.67;;;;;;;22.30;58.25;99162.69;1830142;77;21267;-65
2021/06/10 02:37:45;;;;;;;8.10;6.55;;;;;;;22.29;58.26;99163.74;1810754;77;21100;-65
2021/06/10 02:40:14;;;;;;;7.70;6.62;;;;;;;22.30;58.28;99159.98;1825346;76;21150;-65
2021/06/10 02:42:42;;;;;;;8.85;6.58;;;;;;;22.31;58.30;99165.65;1823701;76;21079;-65
2021/06/10 02:45:11;;;;;;;7.75;7.05;;;;;;;22.30;58.30;99166.20;1829105;76;21063;-65
2021/06/10 02:47:38;;;;;;;7.97;7.17;;;;;;;22.30;58.29;99160.78;1822368;76;21048;-63
2021/06/10 02:50:06;;;;;;;7.30;6.42;;;;;;;22.31;58.29;99164.30;1785054;78;21029;-65
2021/06/10 02:52:34;;;;;;;7.65;6.08;;;;;;;22.31;58.30;99154.83;1781611;78;21092;-66
2021/06/10 02:55:00;;;;;;;7.03;6.33;;;;;;;22.31;58.32;99154.83;1795408;78;21137;-65
2021/06/10 02:57:29;;;;;;;6.62;6.03;;;;;;;22.31;58.35;99155.66;1817941;77;21494;-66
2021/06/10 02:59:55;;;;;;;6.35;5.85;;;;;;;22.33;58.37;99154.06;1812516;77;21521;-65
2021/06/10 03:02:22;;;;;;;7.90;7.10;;;;;;;22.33;58.39;99152.70;1813055;77;21116;-65
2021/06/10 03:04:48;;;;;;;7.67;6.50;;;;;;;22.35;58.36;99155.42;1811939;77;21069;-66
2021/06/10 03:07:17;;;;;;;7.28;6.58;;;;;;;22.35;58.33;99152.72;1813239;77;21186;-66
2021/06/10 03:09:44;;;;;;;7.45;6.53;;;;;;;22.35;58.35;99155.97;1807886;77;21045;-64
2021/06/10 03:12:13;;;;;;;6.83;6.17;;;;;;;22.36;58.30;99159.73;1812936;77;21053;-65
2021/06/10 03:14:41;;;;;;;7.20;6.25;;;;;;;22.36;58.29;99151.62;1815973;77;21061;-64
2021/06/10 03:17:14;;;;;;;6.83;6.22;;;;;;;22.37;58.27;99159.22;1813521;77;21029;-65
2021/06/10 03:19:41;;;;;;;8.45;6.47;;;;;;;22.37;58.31;99157.88;1821164;77;21111;-64
2021/06/10 03:22:07;;;;;;;7.22;6.53;;;;;;;22.38;58.32;99154.08;1818566;77;21592;-66
2021/06/10 03:24:34;;;;;;;7.30;6.60;;;;;;;22.40;58.31;99155.98;1782032;77;21555;-64
2021/06/10 03:27:01;;;;;;;7.35;6.65;;;;;;;22.42;58.26;99165.20;1772253;77;21550;-66
2021/06/10 03:29:27;;;;;;;7.35;6.65;;;;;;;22.42;58.23;99168.72;1797275;77;21609;-64
2021/06/10 03:31:54;;;;;;;7.15;6.50;;;;;;;22.41;58.23;99160.33;1791827;77;21150;-64
2021/06/10 03:34:20;;;;;;;7.20;6.60;;;;;;;22.44;58.22;99176.58;1797458;77;21081;-65
2021/06/10 03:36:46;;;;;;;7.08;6.47;;;;;;;22.44;58.18;99163.05;1793929;77;21042;-65
2021/06/10 03:39:14;;;;;;;7.25;6.62;;;;;;;22.45;58.21;99164.15;1798664;77;21015;-66
2021/06/10 03:41:41;;;;;;;6.95;6.28;;;;;;;22.47;58.21;99162.54;1794947;77;21581;-66
2021/06/10 03:44:08;;;;;;;7.45;6.53;;;;;;;22.48;58.25;99164.16;1762615;77;21177;-65
2021/06/10 03:46:35;;;;;;;7.80;7.00;;;;;;;22.48;58.19;99164.96;1801177;77;21037;-64
2021/06/10 03:49:03;;;;;;;7.55;6.85;;;;;;;22.50;58.19;99160.65;1798645;77;20995;-63
2021/06/10 03:51:29;;;;;;;11.40;8.00;;;;;;;22.52;58.16;99160.69;1795527;77;21417;-65
2021/06/10 03:53:56;;;;;;;8.10;7.40;;;;;;;22.55;58.15;99163.40;1800628;77;21581;-66
2021/06/10 03:56:23;;;;;;;7.75;7.00;;;;;;;22.56;58.10;99165.01;1793557;77;21202;-65
2021/06/10 03:58:49;;;;;;;7.50;6.17;;;;;;;22.58;58.05;99166.95;1769962;79;21096;-65
2021/06/10 04:01:16;;;;;;;8.18;6.87;;;;;;;22.62;57.99;99160.45;1790456;77;21113;-65
2021/06/10 04:03:44;;;;;;;6.83;6.20;;;;;;;22.64;58.01;99160.48;1792111;77;21522;-64
2021/06/10 04:06:12;;;;;;;7.03;6.40;;;;;;;22.67;58.02;99156.42;1800627;77;21082;-65
2021/06/10 04:08:39;;;;;;;8.33;7.10;;;;;;;22.71;58.02;99161.59;1795854;77;21621;-65
2021/06/10 04:11:05;;;;;;;7.17;6.47;;;;;;;22.73;57.96;99157.53;1799923;77;21534;-63
2021/06/10 04:13:33;;;;;;;7.45;6.70;;;;;;;22.77;57.91;99163.24;1792730;77;21102;-66
2021/06/10 04:16:00;;;;;;;8.23;6.87;;;;;;;22.82;57.89;99165.19;1798440;77;21049;-65
2021/06/10 04:18:27;;;;;;;7.10;6.37;;;;;;;22.85;57.81;99164.64;1800128;77;21018;-65
2021/06/10 04:20:54;;;;;;;7.50;6.90;;;;;;;22.89;57.75;99161.16;1799745;77;21128;-65
2021/06/10 04:23:21;;;;;;;7.37;6.67;;;;;;;22.94;57.71;99165.77;1806433;77;21081;-65
2021/06/10 04:25:47;;;;;;;9.03;7.15;;;;;;;22.99;57.71;99165.00;1809811;77;21058;-65
2021/06/10 04:28:14;;;;;;;6.87;6.30;;;;;;;23.04;57.60;99160.97;1807492;77;21089;-63
2021/06/10 04:30:41;;;;;;;6.85;6.17;;;;;;;23.09;57.51;99167.78;1799433;77;21728;-64
2021/06/10 04:33:07;;;;;;;7.85;6.75;;;;;;;23.13;57.48;99162.10;1808705;77;21131;-65
2021/06/10 04:35:33;;;;;;;7.30;6.70;;;;;;;23.19;57.35;99162.94;1808246;77;21109;-65
2021/06/10 04:38:00;;;;;;;7.00;6.33;;;;;;;23.26;57.16;99163.52;1803843;77;21057;-64
2021/06/10 04:40:26;;;;;;;7.05;6.37;;;;;;;23.35;57.05;99160.55;1808269;77;21018;-65
2021/06/10 04:42:53;;;;;;;6.85;6.25;;;;;;;23.43;56.92;99159.21;1803765;77;21053;-66
2021/06/10 04:45:20;;;;;;;7.12;6.55;;;;;;;23.49;56.73;99161.69;1807249;77;21116;-65
2021/06/10 04:47:47;;;;;;;7.00;6.40;;;;;;;23.54;56.54;99158.97;1804433;77;21029;-64
2021/06/10 04:50:13;;;;;;;7.35;6.37;;;;;;;23.63;56.37;99161.17;1807832;78;21561;-64
2021/06/10 04:52:40;;;;;;;7.00;6.30;;;;;;;23.68;56.23;99157.94;1802071;77;21613;-65
2021/06/10 04:55:08;;;;;;;6.72;6.12;;;;;;;23.77;56.12;99151.98;1815130;77;21100;-65
2021/06/10 04:57:35;;;;;;;7.15;6.40;;;;;;;23.83;56.03;99151.73;1800828;77;21115;-64
2021/06/10 05:00:04;;;;;;;9.23;6.72;;;;;;;23.89;55.91;99153.91;1814220;77;21030;-64
2021/06/10 05:02:31;;;;;;;7.70;5.85;;;;;;;23.93;55.77;99155.83;1803458;77;21174;-65
2021/06/10 05:04:57;;;;;;;7.03;6.33;;;;;;;23.99;55.76;99158.52;1799302;77;21675;-64
2021/06/10 05:07:24;;;;;;;6.62;6.03;;;;;;;24.04;55.77;99156.63;1803648;77;21573;-65
2021/06/10 05:09:50;;;;;;;5.87;5.37;;;;;;;24.09;55.90;99156.64;1809861;78;21142;-65
2021/06/10 05:12:17;;;;;;;7.10;6.40;;;;;;;24.14;55.77;99153.94;1808255;76;21072;-65
2021/06/10 05:14:43;;;;;;;8.13;5.90;;;;;;;24.19;55.50;99156.38;1818155;76;21105;-64
2021/06/10 05:17:10;;;;;;;7.55;6.15;;;;;;;24.21;55.35;99164.50;1812373;77;21068;-64
2021/06/10 05:19:37;;;;;;;7.75;6.72;;;;;;;24.25;55.14;99155.28;1816269;76;21037;-63
2021/06/10 05:22:04;;;;;;;7.75;6.95;;;;;;;24.28;54.94;99154.19;1819176;77;21115;-64
2021/06/10 05:24:30;;;;;;;7.22;6.53;;;;;;;24.31;54.88;99159.61;1808517;76;21057;-64
2021/06/10 05:26:57;;;;;;;7.70;6.75;;;;;;;24.35;54.71;99155.26;1811895;77;21076;-65
2021/06/10 05:29:23;;;;;;;8.53;7.75;;;;;;;24.39;54.62;99159.05;1814139;76;21056;-64
2021/06/10 05:31:50;;;;;;;9.13;8.23;;;;;;;24.43;54.60;99162.03;1809636;76;21188;-66
2021/06/10 05:34:16;;;;;;;9.43;8.33;;;;;;;24.46;54.53;99162.86;1822171;78;21955;-66
2021/06/10 05:39:47;;;;;;;7.58;6.25;;;;;;;24.58;54.20;99158.52;1798852;78;24071;-65
2021/06/10 05:42:14;;;;;;;6.62;6.05;;;;;;;24.57;53.97;99160.43;1773926;78;20992;-65
2021/06/10 05:44:40;;;;;;;6.85;5.58;;;;;;;24.60;53.88;99163.94;1771952;79;21124;-66
2021/06/10 05:47:09;;;;;;;6.62;5.03;;;;;;;24.63;53.79;99159.33;1775305;78;20953;-66
2021/06/10 05:49:36;;;;;;;5.47;4.97;;;;;;;24.66;53.72;99166.91;1756214;78;21007;-67
2021/06/10 05:52:04;;;;;;;5.25;4.85;;;;;;;24.69;53.54;99164.20;1734129;78;21026;-68
2021/06/10 05:54:32;;;;;;;5.12;4.70;;;;;;;24.72;53.30;99167.70;1775044;79;21543;-66
2021/06/10 05:56:58;;;;;;;5.50;4.92;;;;;;;24.66;53.23;99156.05;1766485;78;21152;-67
2021/06/10 05:59:26;;;;;;;5.12;4.70;;;;;;;24.75;53.31;99173.96;1763651;79;21531;-65
2021/06/10 06:01:53;;;;;;;5.50;4.97;;;;;;;24.79;53.23;99172.88;1778909;78;21022;-67
2021/06/10 06:04:19;;;;;;;5.75;5.08;;;;;;;24.81;53.34;99171.49;1783058;78;20993;-66
2021/06/10 06:06:47;;;;;;;5.70;5.20;;;;;;;24.84;53.43;99166.88;1762515;78;21555;-66
2021/06/10 06:09:15;;;;;;;5.08;4.58;;;;;;;24.86;53.13;99169.30;1772216;78;21088;-68
2021/06/10 06:11:41;;;;;;;4.83;4.42;;;;;;;24.86;53.03;99170.13;1768871;79;21028;-66
2021/06/10 06:14:09;;;;;;;6.20;5.00;;;;;;;24.89;53.14;99173.64;1767672;78;21080;-67
2021/06/10 06:16:40;;;;;;;4.80;4.33;;;;;;;24.92;53.06;99175.01;1769870;78;22292;-65
2021/06/10 06:19:08;;;;;;;5.55;4.28;;;;;;;24.95;52.73;99172.27;1762356;79;21045;-66
2021/06/10 06:21:35;;;;;;;5.28;4.83;;;;;;;24.97;52.68;99169.53;1771246;78;21111;-66
2021/06/10 06:24:03;;;;;;;5.75;4.70;;;;;;;25.00;53.08;99169.55;1761599;79;21055;-65
2021/06/10 06:26:30;;;;;;;5.20;4.70;;;;;;;25.04;53.66;99168.70;1767880;78;21029;-64
2021/06/10 06:29:01;;;;;;;5.40;4.90;;;;;;;25.11;53.79;99167.03;1758769;78;21071;-64
2021/06/10 06:31:30;;;;;;;4.78;4.40;;;;;;;25.16;53.43;99170.30;1770617;78;21556;-62
2021/06/10 06:33:56;;;;;;;4.65;4.25;;;;;;;25.21;52.90;99167.56;1778317;78;21835;-62
2021/06/10 06:36:23;;;;;;;4.62;4.22;;;;;;;25.21;52.77;99168.38;1775893;78;21099;-64
2021/06/10 06:38:50;;;;;;;4.35;4.05;;;;;;;25.24;52.27;99169.73;1766374;78;21072;-64
2021/06/10 06:41:16;;;;;;;4.33;3.92;;;;;;;25.24;52.14;99165.11;1758780;79;20965;-65
2021/06/10 06:43:43;;;;;;;4.35;4.00;;;;;;;25.26;52.09;99165.64;1759421;79;21060;-65
2021/06/10 06:46:11;;;;;;;4.87;4.10;;;;;;;25.29;52.01;99170.53;1767953;79;21807;-65
2021/06/10 06:48:37;;;;;;;4.92;4.47;;;;;;;25.33;51.87;99170.79;1752192;79;21026;-64
2021/06/10 06:51:05;;;;;;;6.28;4.22;;;;;;;25.35;51.82;99167.24;1756009;79;21044;-66
2021/06/10 06:53:32;;;;;;;8.63;4.03;;;;;;;25.37;51.52;99170.49;1746596;79;21005;-66
2021/06/10 06:55:59;;;;;;;4.90;4.40;;;;;;;25.31;51.57;99160.19;1753466;79;21042;-66
2021/06/10 06:58:26;;;;;;;9.45;7.45;;;;;;;25.41;51.60;99174.83;1751764;79;21291;-64
2021/06/10 07:00:53;;;;;;;8.53;6.58;;;;;;;25.44;51.85;99172.89;1758500;79;21540;-64
2021/06/10 07:03:20;;;;;;;10.78;6.60;;;;;;;25.45;52.01;99167.18;1761285;79;20985;-65
2021/06/10 07:05:47;;;;;;;8.13;5.58;;;;;;;25.48;51.76;99167.19;1759301;79;22118;-64
2021/06/10 07:08:14;;;;;;;8.28;5.42;;;;;;;25.51;51.81;99170.13;1763585;79;20997;-64
2021/06/10 07:10:41;;;;;;;7.20;4.83;;;;;;;25.53;51.60;99175.30;1749470;79;21149;-65
2021/06/10 07:13:08;;;;;;;7.05;4.75;;;;;;;25.54;51.74;99167.97;1763214;79;21041;-64
2021/06/10 07:15:37;;;;;;;7.55;4.87;;;;;;;25.56;51.72;99165.78;1765164;79;21057;-63
2021/06/10 07:18:04;;;;;;;9.50;5.62;;;;;;;25.58;51.60;99165.76;1768556;79;21025;-62
2021/06/10 07:20:31;;;;;;;6.58;4.92;;;;;;;25.60;51.64;99160.05;1753706;79;21086;-65
2021/06/10 07:22:57;;;;;;;6.12;4.75;;;;;;;25.62;51.62;99158.66;1770836;79;21123;-65
2021/06/10 07:25:24;;;;;;;6.22;4.67;;;;;;;25.64;51.32;99165.19;1759108;79;21486;-65
2021/06/10 07:27:50;;;;;;;6.50;4.53;;;;;;;25.68;51.40;99163.52;1755514;79;21082;-69
2021/06/10 07:30:19;;;;;;;6.97;4.22;;;;;;;25.69;51.39;99165.97;1746728;79;21509;-63
2021/06/10 07:32:45;;;;;;;6.22;4.25;;;;;;;25.71;51.39;99164.33;1759063;79;21009;-62
2021/06/10 07:35:23;;;;;;;6.78;4.90;;;;;;;25.75;51.25;99165.91;1752540;79;21177;-63
2021/06/10 07:37:51;;;;;;;8.95;5.08;;;;;;;25.76;51.50;99162.11;1760606;79;21061;-64
2021/06/10 07:40:19;;;;;;;4.87;4.37;;;;;;;25.80;51.34;99159.89;1732803;79;21077;-66
2021/06/10 07:42:45;;;;;;;4.90;4.40;;;;;;;25.82;51.01;99159.06;1744332;79;21145;-64
2021/06/10 07:45:14;;;;;;;4.50;4.08;;;;;;;25.84;51.15;99168.30;1757424;79;21069;-63
2021/06/10 07:47:42;;;;;;;5.00;4.50;;;;;;;25.86;51.34;99166.11;1737648;79;21517;-62
2021/06/10 07:50:10;;;;;;;4.67;4.28;;;;;;;25.86;51.07;99165.59;1743958;79;21489;-62
2021/06/10 07:52:36;;;;;;;5.62;4.00;;;;;;;25.88;51.03;99169.36;1740137;79;21025;-62
2021/06/10 07:55:04;;;;;;;5.62;4.37;;;;;;;25.90;51.21;99175.33;1747816;80;21081;-63
2021/06/10 07:57:31;;;;;;;5.45;4.40;;;;;;;25.91;51.09;99172.92;1711797;81;21379;-63
2021/06/10 07:59:57;;;;;;;5.10;4.50;;;;;;;25.92;50.83;99171.00;1751448;79;21091;-64
2021/06/10 08:02:25;;;;;;;4.72;4.33;;;;;;;25.92;50.60;99174.53;1760132;79;21029;-64
2021/06/10 08:04:52;;;;;;;4.35;3.92;;;;;;;25.93;50.56;99177.53;1754699;79;21072;-69
2021/06/10 08:07:18;;;;;;;4.62;4.20;;;;;;;25.95;50.52;99184.05;1753819;80;21514;-69
2021/06/10 08:09:47;;;;;;;4.25;3.95;;;;;;;25.94;50.45;99174.25;1754354;79;21092;-69
2021/06/10 08:12:14;;;;;;;4.83;4.08;;;;;;;25.95;50.66;99179.41;1755349;79;21049;-70
2021/06/10 08:14:40;;;;;;;4.62;4.25;;;;;;;25.97;50.93;99175.86;1753220;79;21072;-69
2021/06/10 08:17:07;;;;;;;5.00;4.50;;;;;;;25.98;50.55;99170.70;1752749;79;21121;-69
2021/06/10 08:19:33;;;;;;;5.35;4.85;;;;;;;26.00;50.48;99170.39;1758560;79;21111;-70
2021/06/10 08:22:00;;;;;;;4.67;4.28;;;;;;;25.99;50.76;99167.42;1742794;79;21044;-65
2021/06/10 08:24:28;;;;;;;5.47;4.62;;;;;;;26.00;51.14;99173.94;1760060;79;21158;-66
2021/06/10 08:26:56;;;;;;;4.67;4.28;;;;;;;26.02;50.85;99164.11;1746103;80;20991;-65
2021/06/10 08:29:27;;;;;;;5.45;4.45;;;;;;;25.99;50.38;99162.78;1744917;79;20998;-71
2021/06/10 08:31:54;;;;;;;4.70;4.33;;;;;;;25.98;50.77;99157.09;1754031;79;21040;-69
2021/06/10 08:34:22;;;;;;;4.95;4.55;;;;;;;25.98;50.83;99154.89;1761864;79;21068;-70
2021/06/10 08:36:50;;;;;;;4.78;4.22;;;;;;;25.97;50.73;99154.09;1756534;79;21129;-70
2021/06/10 08:39:16;;;;;;;4.67;4.10;;;;;;;25.97;50.64;99160.89;1745950;79;21589;-70
2021/06/10 08:41:44;;;;;;;4.20;3.77;;;;;;;25.97;50.54;99164.17;1739585;80;21084;-64
2021/06/10 08:44:11;;;;;;;5.05;4.65;;;;;;;25.96;50.70;99161.17;1737119;80;21049;-64
2021/06/10 08:46:38;;;;;;;4.70;4.28;;;;;;;25.97;50.60;99169.61;1746540;80;21092;-63
2021/06/10 08:49:06;;;;;;;4.72;4.12;;;;;;;25.96;50.74;99169.34;1742985;81;21124;-63
2021/06/10 08:51:32;;;;;;;5.03;4.37;;;;;;;25.97;51.13;99165.53;1748160;80;21552;-65
2021/06/10 08:53:59;;;;;;;6.25;4.45;;;;;;;25.95;50.88;99164.45;1747940;81;21025;-65
2021/06/10 08:56:28;;;;;;;6.55;4.28;;;;;;;25.96;51.09;99163.89;1742201;80;21151;-65
2021/06/10 08:58:54;;;;;;;5.53;4.65;;;;;;;25.97;51.13;99169.61;1724369;81;21044;-64
2021/06/10 09:01:21;;;;;;;5.22;4.72;;;;;;;25.96;51.02;99162.00;1741217;81;21115;-65
2021/06/10 09:03:47;;;;;;;13.18;10.70;;;;;;;25.96;51.13;99162.00;1746579;81;21072;-66
2021/06/10 09:06:17;;;;;;;10.08;8.15;;;;;;;25.96;51.30;99163.89;1748227;80;21095;-63
2021/06/10 09:08:49;;;;;;;11.55;8.20;;;;;;;25.96;51.35;99159.81;1744642;80;21065;-63
2021/06/10 09:11:19;;;;;;;11.53;8.38;;;;;;;25.96;51.10;99159.28;1746293;80;22651;-62
2021/06/10 09:13:49;;;;;;;19.50;9.83;;;;;;;25.95;51.00;99150.84;1740377;80;22307;-65
2021/06/10 09:16:27;;;;;;;42.50;14.05;;;;;;;25.96;50.95;99155.20;1742939;80;21072;-67
2021/06/10 09:19:11;;;;;;;49.83;15.25;;;;;;;25.96;51.13;99155.73;1742322;80;21052;-65
2021/06/10 09:21:39;;;;;;;60.90;20.00;;;;;;;25.94;50.97;99153.31;1743433;80;21571;-65
2021/06/10 09:24:38;;;;;;;45.28;14.43;;;;;;;25.90;50.92;99156.28;1742409;80;21501;-66
2021/06/10 09:27:08;;;;;;;25.77;11.05;;;;;;;25.88;50.73;99158.47;1740327;81;21084;-67
2021/06/10 09:29:50;;;;;;;28.12;10.55;;;;;;;25.84;51.14;99156.06;1732965;81;21041;-65
2021/06/10 09:32:22;;;;;;;25.17;10.72;;;;;;;25.82;51.05;99163.70;1735704;81;21556;-66
2021/06/10 09:35:06;;;;;;;14.60;7.60;;;;;;;25.81;51.61;99165.61;1738567;80;21080;-64
2021/06/10 09:37:39;;;;;;;13.58;8.08;;;;;;;25.80;51.90;99160.45;1747293;81;21180;-66
2021/06/10 09:40:16;;;;;;;10.93;6.83;;;;;;;25.78;52.15;99163.45;1753444;79;21120;-66
2021/06/10 09:42:42;;;;;;;11.83;6.65;;;;;;;25.75;52.29;99161.30;1765074;80;21041;-67
2021/06/10 09:45:13;;;;;;;11.38;6.78;;;;;;;25.74;52.50;99165.66;1762147;79;21595;-65
2021/06/10 09:47:47;;;;;;;11.65;7.12;;;;;;;25.70;52.48;99163.49;1763410;79;21002;-67
2021/06/10 09:50:31;;;;;;;7.83;6.78;;;;;;;25.67;52.54;99170.04;1758241;79;20985;-66
2021/06/10 09:53:02;;;;;;;7.37;6.47;;;;;;;25.64;52.45;99170.06;1768097;79;21120;-69
2021/06/10 09:55:56;;;;;;;9.73;6.90;;;;;;;25.61;52.42;99168.45;1777141;79;21014;-68
2021/06/10 09:58:39;;;;;;;8.95;6.65;;;;;;;25.58;52.55;99163.04;1771700;79;21201;-68
2021/06/10 10:01:11;;;;;;;7.62;6.30;;;;;;;25.58;52.81;99180.72;1771352;79;20990;-68
2021/06/10 10:03:42;;;;;;;8.88;5.97;;;;;;;25.60;52.93;99176.36;1772776;80;21494;-63
2021/06/10 10:06:17;;;;;;;8.35;6.30;;;;;;;25.63;53.13;99179.34;1770210;79;23070;-64
2021/06/10 10:08:45;;;;;;;11.30;6.20;;;;;;;25.67;53.24;99185.84;1770092;79;21057;-68
2021/06/10 10:11:11;;;;;;;9.13;5.83;;;;;;;25.72;53.18;99190.98;1785915;79;21228;-65
2021/06/10 10:13:40;;;;;;;6.30;5.67;;;;;;;25.75;53.08;99176.80;1773867;79;21005;-68
2021/06/10 10:16:07;;;;;;;6.37;5.50;;;;;;;25.78;52.73;99175.69;1774941;79;21062;-69
2021/06/10 10:18:34;;;;;;;6.45;5.85;;;;;;;25.82;52.59;99167.77;1773807;79;21889;-70
2021/06/10 10:21:02;;;;;;;7.70;5.42;;;;;;;25.87;52.10;99161.75;1768816;79;21042;-71
2021/06/10 10:23:28;;;;;;;6.35;5.75;;;;;;;25.93;51.67;99154.40;1769789;79;21013;-64
2021/06/10 10:26:02;;;;;;;5.72;5.22;;;;;;;26.02;51.62;99151.34;1774966;79;21059;-68
2021/06/10 10:28:34;;;;;;;5.90;5.40;;;;;;;26.06;50.70;99128.45;1755768;80;21064;-67
2021/06/10 10:31:02;;;;;;;5.17;4.67;;;;;;;26.20;49.90;99135.41;1761086;79;21104;-67
2021/06/10 10:33:29;;;;;;;5.12;4.62;;;;;;;26.27;48.96;99121.72;1763610;79;21026;-65
2021/06/10 10:36:03;;;;;;;6.78;4.85;;;;;;;26.37;48.74;99121.37;1768068;79;21502;-67
2021/06/10 10:38:39;;;;;;;5.10;4.70;;;;;;;26.45;48.39;99118.81;1771504;79;21036;-66
2021/06/10 10:41:18;;;;;;;5.40;4.90;;;;;;;26.55;47.94;99116.53;1769814;79;21097;-65
2021/06/10 10:43:44;;;;;;;4.87;4.47;;;;;;;26.65;47.55;99116.44;1772529;79;21906;-66
2021/06/10 10:46:22;;;;;;;5.20;4.70;;;;;;;26.77;47.17;99115.22;1737798;79;21277;-66
2021/06/10 10:48:49;;;;;;;5.42;4.92;;;;;;;26.88;46.57;99116.73;1769804;78;21075;-67
2021/06/10 10:51:38;;;;;;;3.95;3.62;;;;;;;26.95;46.16;99122.64;1732545;79;28460;-67
2021/06/10 10:54:25;;;;;;;4.15;3.72;;;;;;;27.01;45.66;99116.02;1743935;79;21564;-66
2021/06/10 10:56:51;;;;;;;4.95;4.30;;;;;;;27.07;45.18;99114.84;1759894;79;21083;-66
2021/06/10 10:59:19;;;;;;;4.10;3.72;;;;;;;27.14;45.11;99122.69;1749885;79;21524;-67
2021/06/10 11:02:09;;;;;;;4.85;3.92;;;;;;;27.21;45.24;99114.93;1744544;80;20985;-67
2021/06/10 11:04:52;;;;;;;4.62;4.22;;;;;;;27.29;45.40;99123.03;1752970;79;21092;-66
2021/06/10 11:07:40;;;;;;;;;;;;;;;27.37;45.72;99126.49;1774470;79;21652;-69
2021/06/10 11:10:20;;;;;;;6.28;4.17;;;;;;;27.45;46.70;99128.55;1768846;79;21131;-68
2021/06/10 11:12:52;;;;;;;4.97;4.47;;;;;;;27.46;46.86;99135.61;1770574;79;21158;-69
2021/06/10 11:15:26;;;;;;;5.90;5.17;;;;;;;27.53;47.11;99137.98;1758081;79;21103;-67
2021/06/10 11:18:01;;;;;;;173.05;29.85;;;;;;;27.59;46.93;99147.72;1765919;79;21132;-67
2021/06/10 11:20:40;;;;;;;12.43;6.00;;;;;;;27.64;46.96;99150.38;1764785;79;21750;-68
2021/06/10 11:23:27;;;;;;;7.28;4.45;;;;;;;27.70;46.82;99144.83;1765437;79;21501;-67
2021/06/10 11:25:57;;;;;;;4.60;4.20;;;;;;;27.74;46.70;99146.69;1751207;79;21036;-67
2021/06/10 11:28:28;;;;;;;6.05;4.45;;;;;;;27.78;46.53;99146.91;1762470;79;21572;-68
2021/06/10 11:31:22;;;;;;;4.80;4.30;;;;;;;27.80;46.26;99150.14;1766461;79;21665;-66
2021/06/10 11:33:53;;;;;;;5.53;4.05;;;;;;;27.83;46.19;99154.99;1771792;79;21018;-69
2021/06/10 11:36:18;;;;;;;6.00;4.20;;;;;;;27.85;46.39;99153.61;1765625;79;21002;-66
2021/06/10 11:38:48;;;;;;;6.37;4.28;;;;;;;27.89;46.45;99151.66;1757718;79;21480;-65
2021/06/10 11:41:23;;;;;;;4.35;4.05;;;;;;;27.90;46.70;99154.10;1746948;79;21042;-65
2021/06/10 11:43:55;;;;;;;4.70;4.25;;;;;;;27.92;46.71;99150.52;1737331;79;21992;-67
2021/06/10 11:46:35;;;;;;;4.87;3.90;;;;;;;27.94;46.69;99149.66;1733931;79;21013;-63